Tiempo atmosférico en la estación meteorológica de Benasque, Huesca (1120 m.)



Fecha
DESCASC
Temp. máxima en grados centígrados (hora)
DESCASC
Temp. mínima en grados centígrados (hora)
DESCASC
Temp. media en grados centígrados
DESCASC
Racha de viento máxima en m/sg (hora)
DESCASC
Velocidad máxima media en intervalos de 10 minutos(hora)
DESCASC
Precipitaciones diarias en mm
DESCASC
Precipitaciones de 00:00 a 06:00 en mm
DESCASC
Precipitaciones de 06:00 a 12:00 en mm
DESCASC
Precipitaciones de 12:00 a 18:00 en mm
DESCASC
Precipitaciones de 18:00 a 24:00 en mm
DESCASC
24-09-2020 19.4 (15:00) 10.3 (00:00) 14.8 10 (15:40) 4.44 (15:40) 0.8 0.6 0 0.2 0
23-09-2020 20.1 (14:20) 7.8 (00:00) 14 6.67 (13:20) 3.89 (17:20) 2.8 0 0 0 2.8
22-09-2020 19.5 (14:40) 8.7 (00:00) 14.1 7.5 (14:40) 3.89 (13:50) 0.2 0 0 0.2 0
21-09-2020 18.4 (14:10) 10.9 (00:00) 14.6 6.67 (14:20) 3.33 (14:10) 4.6 0 4 0.6 0
20-09-2020 21.7 (16:30) 7 (00:00) 14.4 7.5 (15:20) 4.72 (15:20) 0.6 0 0 0 0.6
19-09-2020 18.7 (14:10) 10.5 (00:00) 14.6 14.17 (07:30) 5.83 (07:30) 32 12.4 17.2 1.2 1.2
18-09-2020 19.7 (15:50) 12.6 (00:00) 16.2 7.5 (16:20) 4.17 (16:10) 16.8 0 1 2.8 13
17-09-2020 25.5 (12:50) 9.1 (00:00) 17.3 8.61 (13:20) 4.72 (13:10) 0.2 0 0 0.2 0
16-09-2020 28.8 (15:20) 7.7 (00:00) 18.2 6.67 (15:00) 4.17 (14:50) 0.4 0 0 0 0.4
15-09-2020 27.6 (15:40) 9.6 (00:00) 18.6 7.78 (17:40) 3.89 (16:00) 0 0 0 0 0
14-09-2020 28.5 (16:30) 7.3 (00:00) 17.9 7.78 (14:20) 4.44 (15:30) 0 0 0 0 0
13-09-2020 28.7 (17:00) 7.4 (00:00) 18.1 8.89 (16:10) 4.17 (15:10) 0 0 0 0 0
12-09-2020 29.2 (16:10) 7.6 (00:00) 18.4 7.5 (14:40) 3.89 (15:00) 0 0 0 0 0
11-09-2020 27.4 (15:50) 8.1 (00:00) 17.8 13.61 (11:40) 6.39 (11:20) 0 0 0 0 0
10-09-2020 23.4 (13:30) 10.7 (00:00) 17 12.5 (13:40) 5.83 (13:40) 0.2 0 0 0.2 0
09-09-2020 18.9 (13:50) 7.7 (00:00) 13.3 11.11 (12:40) 5.83 (12:40) 0 0 0 0 0
08-09-2020 24.7 (15:20) 2.3 (00:00) 13.5 12.78 (01:00) 6.39 (00:30) 0 0 0 0 0
07-09-2020 17.5 (15:40) 11.8 (08:20) 14.7 16.67 (09:30) 8.33 (13:30) 0 0 0 0 0
06-09-2020 26.1 (15:30) 9.2 (00:00) 17.7 14.17 (23:10) 6.94 (23:40) 0.8 0 0 0 0.8
05-09-2020 30.1 (15:40) 7.7 (00:00) 18.9 7.78 (16:20) 3.89 (14:30) 0 0 0 0 0
04-09-2020 28.4 (16:10) 6.6 (00:00) 17.5 7.78 (15:30) 4.72 (14:10) 0 0 0 0 0
03-09-2020 27.3 (16:10) 5.1 (00:00) 16.2 7.5 (14:20) 4.72 (17:20) 0 0 0 0 0
02-09-2020 25.1 (16:30) 5.3 (00:00) 15.2 8.33 (00:20) 4.44 (17:40) 0 0 0 0 0
01-09-2020 23.7 (15:40) 6.1 (00:00) 14.9 8.89 (22:50) 4.44 (16:20) 0 0 0 0 0
31-08-2020 22.5 (16:30) 2.3 (00:00) 12.4 8.89 (00:30) 4.72 (14:20) 0 0 0 0 0
30-08-2020 19.2 (12:30) 4.8 (00:00) 12 12.78 (17:40) 6.67 (17:40) 0 0 0 0 0
29-08-2020 21.1 (14:50) 11.3 (00:00) 16.2 12.22 (15:50) 5.83 (15:50) 0.8 0 0 0.6 0.2
28-08-2020 23.9 (12:30) 14.5 (00:00) 19.2 9.72 (11:50) 5.83 (12:20) 2.4 0 0 2.4 0
27-08-2020 32.3 (15:10) 11.4 (00:00) 21.8 8.06 (13:50) 4.72 (16:50) 0 0 0 0 0
26-08-2020 32 (15:50) 10.6 (00:00) 21.3 8.06 (14:40) 4.72 (14:40) 0 0 0 0 0

Gráficas

Temp. máximas Temp. mínimas Temp. medias Precipitaciones Rachas de viento máximas Velocidades máximas media en intervalos de 10 minutos

Datos horarios

Fecha y hora oficial Temperatura (ºC) Velocidad del viento (km/h) Dirección del viento Racha (km/h) Dirección de racha Precipitación (mm) Presión (hPa) Tendencia (hPa) Humedad (%)
2020-09-24 23:00:00 13.2 4 Oeste 14 Sudoeste 0 -- -- 61
2020-09-24 22:00:00 13.7 5 Sur 17 Sudoeste 0 -- -- 57
2020-09-24 21:00:00 11.6 0 Calma 9 Sur 0 -- -- 76
2020-09-24 20:00:00 12.7 2 Nordeste 9 Sudoeste 0 -- -- 73
2020-09-24 19:00:00 15 4 Sudeste 23 Sur 0 -- -- 59
2020-09-24 18:00:00 17.3 7 Sudeste 22 Sudoeste 0.2 -- -- 58
2020-09-24 17:00:00 16.4 9 Sur 33 Sudoeste 0 -- -- 61
2020-09-24 16:00:00 16.6 14 Sudoeste 36 Sudoeste 0 -- -- 63
2020-09-24 15:00:00 19.4 6 Sur 26 Sudeste 0 -- -- 52
2020-09-24 14:00:00 18.1 8 Sur 24 Sudoeste 0 -- -- 55
2020-09-24 13:00:00 18.6 9 Sur 21 Sudeste 0 -- -- 58
2020-09-24 12:00:00 17 5 Sudoeste 13 Sur 0 -- -- 76
2020-09-24 11:00:00 13.5 2 Sudoeste 10 Sudoeste 0 -- -- 96
2020-09-24 10:00:00 11.3 0 Calma 5 Sudoeste 0 -- -- 99
2020-09-24 09:00:00 10.7 0 Calma 3 Sur 0 -- -- 99
2020-09-24 08:00:00 10.5 0 Calma 4 Sudeste 0 -- -- 99
2020-09-24 07:00:00 10.5 0 Calma 5 Oeste 0 -- -- 99
2020-09-24 06:00:00 10.8 3 Sudoeste 4 Oeste 0 -- -- 99
2020-09-24 05:00:00 11.1 2 Sudoeste 6 Oeste 0 -- -- 99
2020-09-24 04:00:00 11.2 0 Calma 5 Sudoeste 0.2 -- -- 99
2020-09-24 03:00:00 11 0 Calma 4 Sudeste 0.4 -- -- 99
2020-09-24 02:00:00 10.7 3 Sur 8 Oeste 0 -- -- 99
2020-09-24 01:00:00 11 3 Nordeste 5 Este 0 -- -- 99
2020-09-24 00:00:00 10.3 0 Calma 5 Sudeste 0 -- -- 98
2020-09-23 23:00:00 11.5 0 Calma 8 Sudoeste 0.2 -- -- 98
2020-09-23 22:00:00 12.5 4 Este 7 Norte 2.6 -- -- 97
2020-09-23 21:00:00 12.8 2 Este 4 Nordeste 0 -- -- 92
2020-09-23 20:00:00 13.7 0 Calma 4 Sudeste 0 -- -- 90
2020-09-23 19:00:00 15.3 0 Calma 13 Oeste 0 -- -- 78
2020-09-23 18:00:00 18.1 9 Sudoeste 24 Sudoeste 0 -- -- 62
2020-09-23 17:00:00 18.6 11 Sudoeste 18 Oeste 0 -- -- 61
2020-09-23 16:00:00 18.4 8 Sudoeste 22 Oeste 0 -- -- 58
2020-09-23 15:00:00 18.7 9 Sudoeste 20 Sudoeste 0 -- -- 57
2020-09-23 14:00:00 19.5 9 Sudoeste 24 Sudoeste 0 -- -- 54
2020-09-23 13:00:00 18.5 3 Sur 9 Nordeste 0 -- -- 62
2020-09-23 12:00:00 16.8 3 Sudoeste 9 Sudoeste 0 -- -- 65
2020-09-23 11:00:00 13.6 0 Calma 9 Norte 0 -- -- 85
2020-09-23 10:00:00 11.4 2 Sudoeste 6 Oeste 0 -- -- 96
2020-09-23 09:00:00 7.8 0 Calma 6 Sudoeste 0 -- -- 99
2020-09-23 08:00:00 8 2 Este 5 Oeste 0 -- -- 100
2020-09-23 07:00:00 8.6 4 Sudoeste 10 Sudoeste 0 -- -- 99
2020-09-23 06:00:00 8.3 0 Calma 0 Calma 0 -- -- 99
2020-09-23 05:00:00 7.9 0 Calma 0 Calma 0 -- -- 99
2020-09-23 04:00:00 7.9 0 Calma 0 Calma 0 -- -- 100
2020-09-23 03:00:00 8.4 0 Calma 0 Calma 0 -- -- 99
2020-09-23 02:00:00 8.3 0 Calma 0 Calma 0 -- -- 99
2020-09-23 01:00:00 9.3 0 Calma 3 Sudeste 0 -- -- 99
2020-09-23 00:00:00 8.8 2 Este 8 Oeste 0 -- -- 99
2020-09-22 23:00:00 9.3 0 Calma 4 Oeste 0 -- -- 98
2020-09-22 22:00:00 10.4 0 Calma 6 Oeste 0 -- -- 97
2020-09-22 21:00:00 11.2 0 Calma 4 Sur 0 -- -- 96
2020-09-22 20:00:00 11.9 0 Calma 5 Oeste 0 -- -- 93
2020-09-22 19:00:00 14.9 4 Sudoeste 8 Sudoeste 0 -- -- 75
2020-09-22 18:00:00 15.5 0 Calma 17 Sudoeste 0 -- -- 78
2020-09-22 17:00:00 16.1 4 Sudeste 19 Sudoeste 0 -- -- 64
2020-09-22 16:00:00 18.8 3 Norte 12 Oeste 0.2 -- -- 57
2020-09-22 15:00:00 17.4 9 Oeste 27 Sudoeste 0 -- -- 66
2020-09-22 14:00:00 16.7 12 Oeste 23 Oeste 0 -- -- 71
2020-09-22 13:00:00 17.3 13 Oeste 21 Oeste 0 -- -- 62
2020-09-22 12:00:00 18.1 6 Sur 11 Sur 0 -- -- 62
2020-09-22 11:00:00 15.5 4 Sudoeste 10 Sudoeste 0 -- -- 76
2020-09-22 10:00:00 13 3 Sudoeste 6 Sudeste 0 -- -- 85
2020-09-22 09:00:00 10.3 0 Calma 6 Sudoeste 0 -- -- 99
2020-09-22 08:00:00 9.8 3 Sudoeste 5 Sudoeste 0 -- -- 99
2020-09-22 07:00:00 9.8 2 Sur 7 Sudoeste 0 -- -- 99
2020-09-22 06:00:00 10.3 0 Calma 5 Sudoeste 0 -- -- 99
2020-09-22 05:00:00 10.5 2 Sudoeste 4 Sudoeste 0 -- -- 98
2020-09-22 04:00:00 10.8 0 Calma 4 Sur 0 -- -- 98
2020-09-22 03:00:00 11 0 Calma 3 Sudeste 0 -- -- 98
2020-09-22 02:00:00 11.2 0 Calma 5 Oeste 0 -- -- 98
2020-09-22 01:00:00 11.3 2 Sudoeste 9 Sudoeste 0 -- -- 98
2020-09-22 00:00:00 11.7 2 Sudoeste 5 Oeste 0 -- -- 98
2020-09-21 23:00:00 11.7 0 Calma 8 Sudoeste 0 -- -- 97
2020-09-21 22:00:00 12.6 0 Calma 2 Este 0 -- -- 96
2020-09-21 21:00:00 13.1 2 Sudeste 3 Sudeste 0 -- -- 95
2020-09-21 20:00:00 13.8 0 Calma 8 Sudoeste 0 -- -- 89
2020-09-21 19:00:00 14.6 5 Sudoeste 13 Oeste 0 -- -- 85
2020-09-21 18:00:00 16 2 Sudeste 6 Sudoeste 0 -- -- 77
2020-09-21 17:00:00 15 2 Sur 14 Sudoeste 0.4 -- -- 82
2020-09-21 16:00:00 14 5 Sudoeste 14 Sudoeste 0.2 -- -- 84
2020-09-21 15:00:00 15.9 9 Sudoeste 24 Sudoeste 0 -- -- 68
2020-09-21 14:00:00 17.9 9 Sudoeste 14 Sudoeste 0 -- -- 69
2020-09-21 13:00:00 16.3 10 Sudoeste 19 Sudoeste 0 -- -- 72
2020-09-21 12:00:00 17.8 3 Norte 10 Oeste 0 -- -- 63
2020-09-21 11:00:00 15.4 2 Sudoeste 5 Sudoeste 0 -- -- 81
2020-09-21 10:00:00 13.2 0 Calma 13 Sudoeste 0 -- -- 94
2020-09-21 09:00:00 11.5 3 Este 9 Sudeste 1 -- -- 98
2020-09-21 08:00:00 11.8 2 Nordeste 5 Este 2.6 -- -- 99
2020-09-21 07:00:00 11.8 0 Calma 4 Sudoeste 0.4 -- -- 98
2020-09-21 06:00:00 11.6 0 Calma 4 Sudeste 0 -- -- 99
2020-09-21 05:00:00 11.7 2 Este 5 Sudoeste 0 -- -- 98
2020-09-21 04:00:00 11.5 0 Calma 0 Calma 0 -- -- 98
2020-09-21 03:00:00 11.6 0 Calma 4 Este 0 -- -- 98
2020-09-21 02:00:00 11.4 0 Calma 9 Sudoeste 0 -- -- 98
2020-09-21 01:00:00 11.3 0 Calma 7 Sudoeste 0 -- -- 98
2020-09-21 00:00:00 10.9 0 Calma 6 Sudeste 0 -- -- 98
2020-09-20 23:00:00 10.9 0 Calma 6 Sudoeste 0 -- -- 97
2020-09-20 22:00:00 12.2 0 Calma 5 Sudeste 0 -- -- 97
2020-09-20 21:00:00 13.1 0 Calma 8 Norte 0 -- -- 95
2020-09-20 20:00:00 14 3 Este 9 Sudeste 0.2 -- -- 91
2020-09-20 19:00:00 15.2 7 Este 18 Sudoeste 0.4 -- -- 84
2020-09-20 18:00:00 19.3 10 Oeste 18 Sudoeste 0 -- -- 56
2020-09-20 17:00:00 20.5 12 Oeste 26 Sudoeste 0 -- -- 51
2020-09-20 16:00:00 21.4 12 Sudoeste 27 Sudoeste 0 -- -- 49
2020-09-20 15:00:00 20 16 Oeste 25 Sudoeste 0 -- -- 54
2020-09-20 14:00:00 19.8 13 Sudoeste 20 Oeste 0 -- -- 53
2020-09-20 13:00:00 19 7 Sur 17 Sudoeste 0 -- -- 63
2020-09-20 12:00:00 16.7 2 Sur 9 Sudoeste 0 -- -- 66
2020-09-20 11:00:00 14.7 3 Sudeste 8 Sudoeste 0 -- -- 77
2020-09-20 10:00:00 11 2 Sudeste 6 Este 0 -- -- 98
2020-09-20 09:00:00 7 0 Calma 6 Sudoeste 0 -- -- 100
2020-09-20 08:00:00 7.2 0 Calma 5 Oeste 0 -- -- 99
2020-09-20 07:00:00 7.8 0 Calma 5 Sur 0 -- -- 99
2020-09-20 06:00:00 8.2 0 Calma 8 Norte 0 -- -- 99
2020-09-20 05:00:00 8.8 0 Calma 4 Sudoeste 0 -- -- 99
2020-09-20 04:00:00 8.7 0 Calma 13 Oeste 0 -- -- 99
2020-09-20 03:00:00 10.2 0 Calma 6 Este 0 -- -- 99
2020-09-20 02:00:00 10.3 3 Oeste 5 Oeste 0 -- -- 99
2020-09-20 01:00:00 10.2 3 Sudeste 4 Sudeste 0 -- -- 99
2020-09-20 00:00:00 10.7 0 Calma 8 Sudoeste 0 -- -- 98
2020-09-19 23:00:00 12.1 2 Sudeste 4 Sudeste 0 -- -- 98
2020-09-19 22:00:00 12.5 2 Nordeste 10 Sudoeste 0.2 -- -- 98
2020-09-19 21:00:00 12.6 2 Este 8 Sudoeste 0.8 -- -- 97
2020-09-19 20:00:00 13.1 0 Calma 7 Sudoeste 0 -- -- 96
2020-09-19 19:00:00 14.1 3 Sudeste 8 Noroeste 0.2 -- -- 94
2020-09-19 18:00:00 13.9 4 Este 20 Sudoeste 1.2 -- -- 92
2020-09-19 17:00:00 17.6 9 Sudoeste 19 Oeste 0 -- -- 62
2020-09-19 16:00:00 17.9 10 Sudoeste 23 Sudoeste 0 -- -- 67
2020-09-19 15:00:00 17.7 11 Sudoeste 21 Sudoeste 0 -- -- 66
2020-09-19 14:00:00 18.2 11 Sudoeste 22 Sudoeste 0 -- -- 64
2020-09-19 13:00:00 17.5 3 Sudoeste 13 Sudoeste 0 -- -- 75
2020-09-19 12:00:00 13.5 5 Sudoeste 11 Sudoeste 0 -- -- 90
2020-09-19 11:00:00 13.1 2 Sudeste 7 Sudoeste 2 -- -- 98
2020-09-19 10:00:00 10.6 3 Sudoeste 7 Sudoeste 4 -- -- 99
2020-09-19 09:00:00 10.6 3 Este 12 Sudoeste 5.6 -- -- 99
2020-09-19 08:00:00 10.7 4 Nordeste 51 Oeste 5.6 -- -- 99
2020-09-19 07:00:00 12.2 4 Este 7 Sudoeste 0 -- -- 99
2020-09-19 06:00:00 12.2 2 Sudeste 5 Sudeste 0 -- -- 99
2020-09-19 05:00:00 12.5 0 Calma 5 Sudoeste 0.2 -- -- 99
2020-09-19 04:00:00 12.8 0 Calma 7 Sudoeste 0 -- -- 99
2020-09-19 03:00:00 12.9 3 Oeste 22 Sudoeste 0.4 -- -- 98
2020-09-19 02:00:00 13.4 5 Oeste 36 Sudoeste 11.2 -- -- 98
2020-09-19 01:00:00 13.8 3 Sur 14 Sur 0.6 -- -- 96
2020-09-19 00:00:00 14 5 Sudeste 26 Sudoeste 3.2 -- -- 96
2020-09-18 23:00:00 14.1 3 Este 8 Nordeste 1.2 -- -- 96
2020-09-18 22:00:00 14.5 3 Oeste 25 Sudoeste 1.4 -- -- 93
2020-09-18 21:00:00 14.5 11 Sudoeste 17 Oeste 5.4 -- -- 96
2020-09-18 20:00:00 15.2 3 Sur 23 Sudoeste 1 -- -- 92
2020-09-18 19:00:00 15.7 5 Sudeste 19 Sudoeste 0.8 -- -- 91
2020-09-18 18:00:00 17 2 Sur 12 Sudoeste 1 -- -- 87
2020-09-18 17:00:00 18.8 5 Sudoeste 27 Sudoeste 0 -- -- 72
2020-09-18 16:00:00 19.3 12 Sudoeste 23 Sudoeste 0 -- -- 71
2020-09-18 15:00:00 17.1 7 Sur 16 Sudeste 0.2 -- -- 83
2020-09-18 14:00:00 15.1 6 Sur 15 Sudoeste 1.2 -- -- 89
2020-09-18 13:00:00 16.2 3 Sur 9 Sudeste 0.4 -- -- 84
2020-09-18 12:00:00 15.5 0 Calma 11 Sudoeste 0 -- -- 81
2020-09-18 11:00:00 15.7 5 Oeste 11 Sudoeste 0 -- -- 82
2020-09-18 10:00:00 14.1 2 Sudeste 12 Nordeste 0.6 -- -- 94
2020-09-18 09:00:00 13.1 3 Norte 9 Sudoeste 0.4 -- -- 94
2020-09-18 08:00:00 13.1 4 Este 8 Norte 0 -- -- 90
2020-09-18 07:00:00 13.4 0 Calma 0 Calma 0 -- -- 88
2020-09-18 06:00:00 13.4 0 Calma 0 Calma 0 -- -- 89
2020-09-18 05:00:00 13.3 0 Calma 0 Calma 0 -- -- 89
2020-09-18 04:00:00 12.6 0 Calma 0 Calma 0 -- -- 90
2020-09-18 03:00:00 13.5 0 Calma 5 Nordeste 0 -- -- 87
2020-09-18 02:00:00 14.2 0 Calma 11 Oeste 0 -- -- 85
2020-09-18 01:00:00 14.4 0 Calma 0 Calma 0 -- -- 84
2020-09-18 00:00:00 14.3 0 Calma 0 Calma 0 -- -- 84
2020-09-17 23:00:00 14.1 0 Calma 5 Sudeste 0 -- -- 84
2020-09-17 22:00:00 15.2 0 Calma 5 Nordeste 0 -- -- 82
2020-09-17 21:00:00 15.6 3 Sudeste 8 Este 0 -- -- 80
2020-09-17 20:00:00 17 4 Este 7 Nordeste 0 -- -- 77
2020-09-17 19:00:00 18.8 5 Nordeste 12 Nordeste 0 -- -- 74
2020-09-17 18:00:00 19.9 0 Calma 9 Norte 0 -- -- 73
2020-09-17 17:00:00 21.8 6 Norte 14 Norte 0 -- -- 58
2020-09-17 16:00:00 21.7 8 Sur 22 Sudoeste 0 -- -- 50
2020-09-17 15:00:00 22.6 7 Norte 16 Noroeste 0 -- -- 56
2020-09-17 14:00:00 20 8 Este 31 Sudoeste 0.2 -- -- 71
2020-09-17 13:00:00 24.9 15 Sudoeste 25 Oeste 0 -- -- 42
2020-09-17 12:00:00 23.1 4 Sur 10 Sudoeste 0 -- -- 49
2020-09-17 11:00:00 21 2 Este 5 Este 0 -- -- 59
2020-09-17 10:00:00 16.3 0 Calma 4 Sudeste 0 -- -- 76
2020-09-17 09:00:00 11 0 Calma 4 Este 0 -- -- 97
2020-09-17 08:00:00 9.2 0 Calma 4 Sudeste 0 -- -- 98
2020-09-17 07:00:00 9.1 0 Calma 6 Sudeste 0 -- -- 97
2020-09-17 06:00:00 9.3 0 Calma 3 Este 0 -- -- 98
2020-09-17 05:00:00 9.6 0 Calma 4 Este 0 -- -- 96
2020-09-17 04:00:00 10.2 0 Calma 6 Sudeste 0 -- -- 96
2020-09-17 03:00:00 10.6 0 Calma 6 Oeste 0 -- -- 96
2020-09-17 02:00:00 11.7 2 Norte 7 Sudeste 0 -- -- 94
2020-09-17 01:00:00 12.3 3 Nordeste 5 Norte 0 -- -- 93
2020-09-17 00:00:00 13.5 3 Nordeste 5 Sudeste 0 -- -- 92
2020-09-16 23:00:00 14 3 Sudeste 6 Sudeste 0 -- -- 90
2020-09-16 22:00:00 14.7 3 Sudeste 5 Oeste 0 -- -- 90
2020-09-16 21:00:00 14.9 3 Este 8 Este 0 -- -- 91
2020-09-16 20:00:00 18.8 7 Nordeste 21 Sudoeste 0.4 -- -- 72
2020-09-16 19:00:00 24.9 11 Sudoeste 24 Sudoeste 0 -- -- 39
2020-09-16 18:00:00 26.5 8 Sur 19 Sudoeste 0 -- -- 36
2020-09-16 17:00:00 27.4 8 Sudoeste 19 Sudoeste 0 -- -- 33
2020-09-16 16:00:00 28.4 13 Sudoeste 21 Sudoeste 0 -- -- 31
2020-09-16 15:00:00 28.5 13 Sudoeste 24 Sudoeste 0 -- -- 29
2020-09-16 14:00:00 28 7 Oeste 17 Sudoeste 0 -- -- 28
2020-09-16 13:00:00 27 7 Sudoeste 14 Sudoeste 0 -- -- 33
2020-09-16 12:00:00 24 4 Sudoeste 9 Sudoeste 0 -- -- 41
2020-09-16 11:00:00 20.7 2 Sudoeste 6 Sur 0 -- -- 51
2020-09-16 10:00:00 15.5 3 Este 8 Este 0 -- -- 75
2020-09-16 09:00:00 8.7 0 Calma 4 Este 0 -- -- 98
2020-09-16 08:00:00 7.9 0 Calma 4 Este 0 -- -- 98
2020-09-16 07:00:00 7.8 0 Calma 4 Este 0 -- -- 97
2020-09-16 06:00:00 8.5 2 Noroeste 6 Sudeste 0 -- -- 97
2020-09-16 05:00:00 8.8 0 Calma 8 Sudoeste 0 -- -- 97
2020-09-16 04:00:00 9 3 Este 5 Este 0 -- -- 96
2020-09-16 03:00:00 9.2 0 Calma 4 Sudeste 0 -- -- 95
2020-09-16 02:00:00 9.8 0 Calma 8 Nordeste 0 -- -- 92
2020-09-16 01:00:00 9.9 3 Este 5 Este 0 -- -- 93
2020-09-16 00:00:00 10.7 3 Este 5 Sudeste 0 -- -- 91
2020-09-15 23:00:00 11.4 2 Este 5 Nordeste 0 -- -- 88
2020-09-15 22:00:00 12.7 0 Calma 5 Sudeste 0 -- -- 82
2020-09-15 21:00:00 14.2 0 Calma 5 Este 0 -- -- 78
2020-09-15 20:00:00 18.5 0 Calma 13 Sudoeste 0 -- -- 64
2020-09-15 19:00:00 20.8 0 Calma 20 Oeste 0 -- -- 49
2020-09-15 18:00:00 22.1 14 Noroeste 28 Noroeste 0 -- -- 43
2020-09-15 17:00:00 24 3 Sudoeste 18 Sudoeste 0 -- -- 45
2020-09-15 16:00:00 25.2 14 Sudoeste 24 Sudoeste 0 -- -- 37
2020-09-15 15:00:00 25.1 7 Sudoeste 10 Sudoeste 0 -- -- 40
2020-09-15 14:00:00 21.5 3 Noroeste 9 Sudoeste 0 -- -- 50
2020-09-15 13:00:00 17.5 4 Oeste 10 Sudoeste 0 -- -- 62
2020-09-15 12:00:00 16.7 0 Calma 8 Sudoeste 0 -- -- 66
2020-09-15 11:00:00 16.2 5 Oeste 8 Sudoeste 0 -- -- 64
2020-09-15 10:00:00 13.9 0 Calma 9 Oeste 0 -- -- 76
2020-09-15 09:00:00 11.2 0 Calma 5 Oeste 0 -- -- 86
2020-09-15 08:00:00 9.9 3 Este 17 Sudoeste 0 -- -- 90
2020-09-15 07:00:00 10 3 Sudoeste 9 Nordeste 0 -- -- 90
2020-09-15 06:00:00 10.4 3 Oeste 6 Sudoeste 0 -- -- 88
2020-09-15 05:00:00 10.7 3 Sudoeste 6 Sudeste 0 -- -- 88
2020-09-15 04:00:00 10.4 0 Calma 4 Este 0 -- -- 88
2020-09-15 03:00:00 9.8 2 Este 5 Sudeste 0 -- -- 88
2020-09-15 02:00:00 10.1 0 Calma 6 Sudeste 0 -- -- 87
2020-09-15 01:00:00 10.8 2 Este 5 Sudeste 0 -- -- 84
2020-09-15 00:00:00 11.7 0 Calma 5 Oeste 0 -- -- 80
2020-09-14 23:00:00 12.6 3 Este 6 Sudeste 0 -- -- 76
2020-09-14 22:00:00 14.5 3 Sudeste 8 Sudeste 0 -- -- 70
2020-09-14 21:00:00 16.2 4 Este 6 Nordeste 0 -- -- 64
2020-09-14 20:00:00 19.4 3 Sudeste 24 Oeste 0 -- -- 53
2020-09-14 19:00:00 24.7 14 Sudoeste 23 Oeste 0 -- -- 34
2020-09-14 18:00:00 26.6 16 Sudoeste 26 Sudoeste 0 -- -- 32
2020-09-14 17:00:00 27.9 13 Sudoeste 24 Oeste 0 -- -- 26
2020-09-14 16:00:00 28 12 Sudoeste 26 Sudoeste 0 -- -- 27
2020-09-14 15:00:00 27.7 14 Oeste 28 Sudoeste 0 -- -- 29
2020-09-14 14:00:00 27 12 Sudoeste 26 Sudoeste 0 -- -- 27
2020-09-14 13:00:00 26 13 Sudoeste 25 Sudoeste 0 -- -- 31
2020-09-14 12:00:00 24.2 4 Sur 11 Sudoeste 0 -- -- 40
2020-09-14 11:00:00 21.3 3 Este 5 Nordeste 0 -- -- 45
2020-09-14 10:00:00 16.4 2 Este 5 Nordeste 0 -- -- 64
2020-09-14 09:00:00 8 0 Calma 4 Sudeste 0 -- -- 95
2020-09-14 08:00:00 7.4 0 Calma 4 Este 0 -- -- 96
2020-09-14 07:00:00 7.4 0 Calma 4 Sudeste 0 -- -- 95
2020-09-14 06:00:00 7.7 0 Calma 4 Este 0 -- -- 93
2020-09-14 05:00:00 7.9 0 Calma 2 Este 0 -- -- 93
2020-09-14 04:00:00 8.5 0 Calma 3 Este 0 -- -- 92
2020-09-14 03:00:00 9.6 2 Este 5 Este 0 -- -- 89
2020-09-14 02:00:00 9.9 0 Calma 4 Este 0 -- -- 86
2020-09-14 01:00:00 11 0 Calma 5 Sudeste 0 -- -- 84
2020-09-14 00:00:00 12.3 2 Este 6 Sudeste 0 -- -- 82
2020-09-13 23:00:00 13.3 4 Sudeste 6 Sudeste 0 -- -- 79
2020-09-13 22:00:00 14.7 2 Este 6 Sudeste 0 -- -- 73
2020-09-13 21:00:00 16.3 0 Calma 8 Este 0 -- -- 68
2020-09-13 20:00:00 18.8 2 Este 10 Oeste 0 -- -- 57
2020-09-13 19:00:00 26 8 Sudoeste 20 Sudoeste 0 -- -- 32
2020-09-13 18:00:00 27.8 10 Sudoeste 25 Sudoeste 0 -- -- 28
2020-09-13 17:00:00 28.7 8 Sudoeste 32 Sudoeste 0 -- -- 28
2020-09-13 16:00:00 28.4 11 Oeste 27 Sudoeste 0 -- -- 27
2020-09-13 15:00:00 27.7 14 Oeste 26 Sudoeste 0 -- -- 29
2020-09-13 14:00:00 27.1 13 Sudoeste 25 Sudoeste 0 -- -- 29
2020-09-13 13:00:00 25.5 13 Sudoeste 21 Sudoeste 0 -- -- 27
2020-09-13 12:00:00 23.6 5 Sudoeste 9 Sudoeste 0 -- -- 43
2020-09-13 11:00:00 21 3 Este 6 Nordeste 0 -- -- 52
2020-09-13 10:00:00 16.2 3 Este 10 Oeste 0 -- -- 69
2020-09-13 09:00:00 8.4 0 Calma 4 Este 0 -- -- 98
2020-09-13 08:00:00 7.4 0 Calma 5 Este 0 -- -- 97
2020-09-13 07:00:00 7.6 3 Este 5 Sudeste 0 -- -- 97
2020-09-13 06:00:00 8.4 3 Este 4 Este 0 -- -- 96
2020-09-13 05:00:00 8.9 0 Calma 5 Sudeste 0 -- -- 96
2020-09-13 04:00:00 8.9 0 Calma 4 Sudeste 0 -- -- 94
2020-09-13 03:00:00 9.8 3 Este 5 Sudeste 0 -- -- 93
2020-09-13 02:00:00 10.5 0 Calma 6 Sudeste 0 -- -- 89
2020-09-13 01:00:00 11.1 0 Calma 4 Este 0 -- -- 88
2020-09-13 00:00:00 12 0 Calma 3 Este 0 -- -- 84
2020-09-12 23:00:00 13 0 Calma 5 Nordeste 0 -- -- 81
2020-09-12 22:00:00 14.6 0 Calma 6 Este 0 -- -- 73
2020-09-12 21:00:00 17.8 4 Este 18 Norte 0 -- -- 62
2020-09-12 20:00:00 21.6 5 Nordeste 17 Noroeste 0 -- -- 50
2020-09-12 19:00:00 24.5 9 Sudoeste 21 Oeste 0 -- -- 37
2020-09-12 18:00:00 26.7 12 Sudoeste 23 Sudoeste 0 -- -- 32
2020-09-12 17:00:00 26.9 9 Sudoeste 20 Sudoeste 0 -- -- 32
2020-09-12 16:00:00 28.1 9 Sur 23 Oeste 0 -- -- 30
2020-09-12 15:00:00 27.7 14 Oeste 27 Sudoeste 0 -- -- 31
2020-09-12 14:00:00 26.8 10 Oeste 18 Sudoeste 0 -- -- 32
2020-09-12 13:00:00 25.5 7 Sudoeste 18 Noroeste 0 -- -- 37
2020-09-12 12:00:00 22.9 5 Sudoeste 11 Oeste 0 -- -- 46
2020-09-12 11:00:00 20.7 2 Este 6 Este 0 -- -- 53
2020-09-12 10:00:00 16.1 0 Calma 5 Este 0 -- -- 72
2020-09-12 09:00:00 8.4 0 Calma 5 Sudeste 0 -- -- 98
2020-09-12 08:00:00 7.7 0 Calma 3 Este 0 -- -- 98
2020-09-12 07:00:00 7.9 0 Calma 5 Sudeste 0 -- -- 97
2020-09-12 06:00:00 8.2 0 Calma 4 Este 0 -- -- 96
2020-09-12 05:00:00 8.8 0 Calma 6 Sudeste 0 -- -- 97
2020-09-12 04:00:00 9.2 0 Calma 6 Sudeste 0 -- -- 96
2020-09-12 03:00:00 9.8 4 Este 6 Sudeste 0 -- -- 94
2020-09-12 02:00:00 10.6 0 Calma 5 Sudeste 0 -- -- 92
2020-09-12 01:00:00 11.1 0 Calma 3 Este 0 -- -- 90
2020-09-12 00:00:00 12.1 3 Este 7 Sudeste 0 -- -- 86
2020-09-11 23:00:00 13 3 Este 6 Oeste 0 -- -- 82
2020-09-11 22:00:00 15.5 3 Sudeste 20 Nordeste 0 -- -- 72
2020-09-11 21:00:00 19.4 6 Nordeste 24 Noroeste 0 -- -- 57
2020-09-11 20:00:00 20.2 10 Norte 31 Este 0 -- -- 54
2020-09-11 19:00:00 22.2 10 Norte 24 Norte 0 -- -- 47
2020-09-11 18:00:00 24.8 8 Nordeste 24 Nordeste 0 -- -- 40
2020-09-11 17:00:00 25.9 10 Nordeste 23 Nordeste 0 -- -- 36
2020-09-11 16:00:00 27.1 9 Nordeste 22 Norte 0 -- -- 34
2020-09-11 15:00:00 26.8 8 Nordeste 28 Nordeste 0 -- -- 33
2020-09-11 14:00:00 24.7 16 Nordeste 33 Nordeste 0 -- -- 36
2020-09-11 13:00:00 23.4 20 Este 37 Nordeste 0 -- -- 37
2020-09-11 12:00:00 22.7 18 Nordeste 49 Este 0 -- -- 39
2020-09-11 11:00:00 21 20 Nordeste 40 Este 0 -- -- 43
2020-09-11 10:00:00 16.8 3 Norte 8 Este 0 -- -- 57
2020-09-11 09:00:00 8.4 0 Calma 7 Sudeste 0 -- -- 90
2020-09-11 08:00:00 8.5 2 Este 6 Este 0 -- -- 88
2020-09-11 07:00:00 8.8 2 Este 8 Sudoeste 0 -- -- 87
2020-09-11 06:00:00 10.4 4 Sudoeste 12 Sudoeste 0 -- -- 78
2020-09-11 05:00:00 13.3 8 Oeste 26 Nordeste 0 -- -- 66
2020-09-11 04:00:00 16.3 8 Nordeste 29 Nordeste 0 -- -- 56
2020-09-11 03:00:00 15.7 5 Nordeste 23 Nordeste 0 -- -- 58
2020-09-11 02:00:00 17.4 12 Nordeste 31 Este 0 -- -- 54
2020-09-11 01:00:00 16.7 9 Este 29 Este 0 -- -- 57
2020-09-11 00:00:00 18.1 13 Nordeste 30 Nordeste 0 -- -- 52
2020-09-10 23:00:00 18.2 5 Nordeste 38 Nordeste 0 -- -- 53
2020-09-10 22:00:00 17.9 10 Nordeste 26 Este 0 -- -- 54
2020-09-10 21:00:00 18 8 Nordeste 20 Este 0 -- -- 54
2020-09-10 20:00:00 18.3 8 Nordeste 30 Nordeste 0 -- -- 53
2020-09-10 19:00:00 20.1 15 Nordeste 35 Este 0 -- -- 48
2020-09-10 18:00:00 20.5 16 Nordeste 35 Este 0 -- -- 48
2020-09-10 17:00:00 20 15 Nordeste 32 Este 0 -- -- 51
2020-09-10 16:00:00 18.3 12 Nordeste 28 Este 0.2 -- -- 59
2020-09-10 15:00:00 20.8 14 Nordeste 38 Este 0 -- -- 47
2020-09-10 14:00:00 21.5 17 Nordeste 45 Nordeste 0 -- -- 44
2020-09-10 13:00:00 21.8 16 Nordeste 32 Nordeste 0 -- -- 46
2020-09-10 12:00:00 20.2 13 Nordeste 39 Este 0 -- -- 50
2020-09-10 11:00:00 19.5 12 Este 42 Nordeste 0 -- -- 51
2020-09-10 10:00:00 13.7 5 Sudoeste 16 Sudoeste 0 -- -- 84
2020-09-10 09:00:00 12 3 Oeste 13 Sudoeste 0 -- -- 92
2020-09-10 08:00:00 11.3 5 Sudoeste 14 Sudoeste 0 -- -- 93
2020-09-10 07:00:00 11.1 4 Sudoeste 9 Oeste 0 -- -- 93
2020-09-10 06:00:00 11.2 0 Calma 4 Este 0 -- -- 94
2020-09-10 05:00:00 11.7 0 Calma 18 Sudoeste 0 -- -- 90
2020-09-10 04:00:00 11.4 5 Oeste 17 Oeste 0 -- -- 84
2020-09-10 03:00:00 11.4 9 Oeste 22 Sudeste 0 -- -- 84
2020-09-10 02:00:00 11.5 4 Sur 14 Sudoeste 0 -- -- 83
2020-09-10 01:00:00 13.3 5 Nordeste 18 Sudoeste 0 -- -- 75
2020-09-10 00:00:00 13.9 9 Oeste 19 Sudoeste 0 -- -- 71
2020-09-09 23:00:00 16.5 5 Nordeste 30 Nordeste 0 -- -- 58
2020-09-09 22:00:00 17.2 14 Nordeste 31 Nordeste 0 -- -- 56
2020-09-09 21:00:00 17.3 12 Nordeste 28 Nordeste 0 -- -- 53
2020-09-09 20:00:00 17.5 13 Nordeste 35 Nordeste 0 -- -- 54
2020-09-09 19:00:00 18.1 16 Nordeste 32 Este 0 -- -- 52
2020-09-09 18:00:00 18.7 14 Nordeste 37 Este 0 -- -- 50
2020-09-09 17:00:00 18.5 19 Nordeste 34 Este 0 -- -- 51
2020-09-09 16:00:00 18.7 15 Nordeste 36 Este 0 -- -- 55
2020-09-09 15:00:00 18.2 19 Este 33 Este 0 -- -- 58
2020-09-09 14:00:00 18.7 14 Nordeste 37 Nordeste 0 -- -- 55
2020-09-09 13:00:00 18.7 12 Nordeste 40 Nordeste 0 -- -- 54
2020-09-09 12:00:00 18.6 14 Nordeste 34 Nordeste 0 -- -- 53
2020-09-09 11:00:00 15.4 3 Oeste 9 Sudoeste 0 -- -- 68
2020-09-09 10:00:00 13.1 3 Norte 15 Sur 0 -- -- 80
2020-09-09 09:00:00 11.7 4 Norte 8 Oeste 0 -- -- 88
2020-09-09 08:00:00 10.2 0 Calma 8 Oeste 0 -- -- 93
2020-09-09 07:00:00 10 3 Este 6 Oeste 0 -- -- 92
2020-09-09 06:00:00 9.6 3 Oeste 8 Oeste 0 -- -- 90
2020-09-09 05:00:00 9.5 3 Nordeste 8 Sudeste 0 -- -- 91
2020-09-09 04:00:00 7.7 3 Nordeste 6 Sudeste 0 -- -- 95
2020-09-09 03:00:00 8.2 3 Sudeste 6 Sudeste 0 -- -- 94
2020-09-09 02:00:00 9.7 4 Noroeste 6 Noroeste 0 -- -- 91
2020-09-09 01:00:00 11 2 Sur 9 Oeste 0 -- -- 87
2020-09-09 00:00:00 10.9 4 Nordeste 9 Nordeste 0 -- -- 86
2020-09-08 23:00:00 12.9 0 Calma 29 Sudeste 0 -- -- 79
2020-09-08 22:00:00 12.7 0 Calma 6 Sudeste 0 -- -- 73
2020-09-08 21:00:00 13.5 2 Este 15 Sudoeste 0 -- -- 67
2020-09-08 20:00:00 18.6 8 Sudoeste 19 Sudoeste 0 -- -- 44
2020-09-08 19:00:00 20.5 9 Oeste 21 Sudoeste 0 -- -- 39
2020-09-08 18:00:00 21.4 8 Sudoeste 25 Oeste 0 -- -- 36
2020-09-08 17:00:00 23.5 6 Sudoeste 27 Sudoeste 0 -- -- 33
2020-09-08 16:00:00 24.4 15 Sudoeste 28 Sudoeste 0 -- -- 30
2020-09-08 15:00:00 24.3 14 Sudoeste 26 Oeste 0 -- -- 29
2020-09-08 14:00:00 23.2 17 Sudoeste 26 Sudoeste 0 -- -- 29
2020-09-08 13:00:00 21.8 5 Sudoeste 13 Oeste 0 -- -- 31
2020-09-08 12:00:00 19.4 6 Sudoeste 11 Sur 0 -- -- 35
2020-09-08 11:00:00 16.6 3 Oeste 7 Este 0 -- -- 37
2020-09-08 10:00:00 12 3 Este 8 Nordeste 0 -- -- 54
2020-09-08 09:00:00 3.4 4 Nordeste 8 Nordeste 0 -- -- 87
2020-09-08 08:00:00 2.6 0 Calma 6 Sudeste 0 -- -- 88
2020-09-08 07:00:00 2.8 0 Calma 7 Sudeste 0 -- -- 87
2020-09-08 06:00:00 3.8 4 Este 6 Este 0 -- -- 82
2020-09-08 05:00:00 4.8 2 Nordeste 5 Sudeste 0 -- -- 77
2020-09-08 04:00:00 7.4 3 Este 25 Nordeste 0 -- -- 64
2020-09-08 03:00:00 12.2 11 Nordeste 38 Nordeste 0 -- -- 46
2020-09-08 02:00:00 12.2 12 Este 37 Este 0 -- -- 46
2020-09-08 01:00:00 12.6 18 Este 46 Nordeste 0 -- -- 45
2020-09-08 00:00:00 12.7 14 Nordeste 46 Nordeste 0 -- -- 45
2020-09-07 23:00:00 12.8 25 Nordeste 50 Nordeste 0 -- -- 46
2020-09-07 22:00:00 12.8 27 Nordeste 56 Este 0 -- -- 45
2020-09-07 21:00:00 12.9 26 Nordeste 49 Nordeste 0 -- -- 48
2020-09-07 20:00:00 13.4 23 Nordeste 49 Este 0 -- -- 48
2020-09-07 19:00:00 15.3 22 Nordeste 44 Nordeste 0 -- -- 43
2020-09-07 18:00:00 16.3 21 Nordeste 47 Nordeste 0 -- -- 39
2020-09-07 17:00:00 17 24 Nordeste 47 Nordeste 0 -- -- 36
2020-09-07 16:00:00 17 26 Nordeste 55 Este 0 -- -- 36
2020-09-07 15:00:00 16.7 27 Nordeste 59 Este 0 -- -- 36
2020-09-07 14:00:00 16 25 Nordeste 56 Nordeste 0 -- -- 40
2020-09-07 13:00:00 15.5 27 Nordeste 55 Este 0 -- -- 42
2020-09-07 12:00:00 15.3 29 Nordeste 59 Este 0 -- -- 41
2020-09-07 11:00:00 14.5 26 Nordeste 52 Nordeste 0 -- -- 43
2020-09-07 10:00:00 13.9 23 Nordeste 60 Este 0 -- -- 44
2020-09-07 09:00:00 12.1 19 Nordeste 46 Este 0 -- -- 49
2020-09-07 08:00:00 12 25 Nordeste 56 Este 0 -- -- 53
2020-09-07 07:00:00 12.6 24 Nordeste 50 Este 0 -- -- 51
2020-09-07 06:00:00 12.7 21 Nordeste 49 Nordeste 0 -- -- 55
2020-09-07 05:00:00 13.1 15 Nordeste 36 Nordeste 0 -- -- 56
2020-09-07 04:00:00 13.7 16 Nordeste 42 Este 0 -- -- 55
2020-09-07 03:00:00 14 12 Nordeste 41 Nordeste 0 -- -- 56
2020-09-07 02:00:00 14.7 12 Nordeste 36 Este 0 -- -- 55
2020-09-07 01:00:00 15.3 16 Nordeste 48 Nordeste 0 -- -- 54
2020-09-07 00:00:00 15.6 17 Nordeste 51 Este 0 -- -- 54
2020-09-06 23:00:00 15.6 17 Nordeste 48 Nordeste 0 -- -- 56
2020-09-06 22:00:00 16.2 16 Nordeste 38 Norte 0.2 -- -- 54
2020-09-06 21:00:00 16.5 12 Nordeste 39 Este 0 -- -- 55
2020-09-06 20:00:00 17.2 15 Nordeste 33 Norte 0 -- -- 57
2020-09-06 19:00:00 18.7 9 Nordeste 28 Norte 0.6 -- -- 59
2020-09-06 18:00:00 19.8 3 Noroeste 29 Sudoeste 0 -- -- 65
2020-09-06 17:00:00 24.4 16 Sudoeste 33 Oeste 0 -- -- 46
2020-09-06 16:00:00 23.8 10 Sur 30 Sur 0 -- -- 47
2020-09-06 15:00:00 24.1 15 Sudoeste 35 Sudoeste 0 -- -- 46
2020-09-06 14:00:00 24.5 6 Sudoeste 24 Sur 0 -- -- 45
2020-09-06 13:00:00 25.5 8 Sudoeste 24 Oeste 0 -- -- 43
2020-09-06 12:00:00 22.8 6 Sudoeste 12 Sudoeste 0 -- -- 56
2020-09-06 11:00:00 21.4 3 Este 6 Este 0 -- -- 58
2020-09-06 10:00:00 17.6 0 Calma 4 Este 0 -- -- 71
2020-09-06 09:00:00 10.2 0 Calma 0 Calma 0 -- -- 99
2020-09-06 08:00:00 9.4 0 Calma 0 Calma 0 -- -- 99
2020-09-06 07:00:00 9.4 0 Calma 0 Calma 0 -- -- 98
2020-09-06 06:00:00 9.9 0 Calma 4 Oeste 0 -- -- 98
2020-09-06 05:00:00 10.6 3 Sudeste 5 Sudeste 0 -- -- 97
2020-09-06 04:00:00 10.9 2 Este 4 Este 0 -- -- 96
2020-09-06 03:00:00 11.5 0 Calma 5 Este 0 -- -- 95
2020-09-06 02:00:00 12.5 0 Calma 5 Sudeste 0 -- -- 94
2020-09-06 01:00:00 13.8 0 Calma 4 Este 0 -- -- 89
2020-09-06 00:00:00 14.6 0 Calma 6 Sudeste 0 -- -- 85
2020-09-05 23:00:00 16.5 2 Este 5 Sudeste 0 -- -- 78
2020-09-05 22:00:00 17.7 2 Sudeste 10 Nordeste 0 -- -- 71
2020-09-05 21:00:00 21.1 6 Este 27 Nordeste 0 -- -- 55
2020-09-05 20:00:00 22.7 8 Norte 26 Norte 0 -- -- 49
2020-09-05 19:00:00 24.7 7 Nordeste 21 Norte 0 -- -- 41
2020-09-05 18:00:00 25.4 7 Norte 24 Nordeste 0 -- -- 39
2020-09-05 17:00:00 27.9 7 Noroeste 28 Sudoeste 0 -- -- 33
2020-09-05 16:00:00 29.2 11 Noroeste 25 Oeste 0 -- -- 32
2020-09-05 15:00:00 29.6 13 Oeste 24 Sudoeste 0 -- -- 32
2020-09-05 14:00:00 28.9 10 Oeste 23 Sudoeste 0 -- -- 33
2020-09-05 13:00:00 26.3 8 Sudoeste 17 Sudoeste 0 -- -- 39
2020-09-05 12:00:00 23.9 5 Oeste 12 Oeste 0 -- -- 46
2020-09-05 11:00:00 20.5 3 Oeste 8 Este 0 -- -- 54
2020-09-05 10:00:00 16.5 2 Este 9 Este 0 -- -- 67
2020-09-05 09:00:00 8.4 3 Este 5 Este 0 -- -- 98
2020-09-05 08:00:00 8 2 Este 4 Este 0 -- -- 97
2020-09-05 07:00:00 7.9 0 Calma 8 Sudeste 0 -- -- 97
2020-09-05 06:00:00 8.4 3 Sudeste 7 Sudeste 0 -- -- 97
2020-09-05 05:00:00 8.7 2 Este 6 Sudeste 0 -- -- 96
2020-09-05 04:00:00 9.5 0 Calma 4 Sudeste 0 -- -- 96
2020-09-05 03:00:00 9.9 0 Calma 6 Sudeste 0 -- -- 95
2020-09-05 02:00:00 10.7 2 Sudeste 6 Sudeste 0 -- -- 93
2020-09-05 01:00:00 11.2 2 Este 5 Sudeste 0 -- -- 91
2020-09-05 00:00:00 12.1 2 Este 4 Nordeste 0 -- -- 89
2020-09-04 23:00:00 13.3 2 Este 5 Sudeste 0 -- -- 84
2020-09-04 22:00:00 14.7 2 Este 5 Sudeste 0 -- -- 79
2020-09-04 21:00:00 16.5 3 Sudeste 6 Este 0 -- -- 72
2020-09-04 20:00:00 20.4 0 Calma 16 Oeste 0 -- -- 60
2020-09-04 19:00:00 26.9 10 Oeste 22 Sudoeste 0 -- -- 37
2020-09-04 18:00:00 28.1 13 Oeste 25 Sudoeste 0 -- -- 35
2020-09-04 17:00:00 28.2 15 Oeste 24 Sudoeste 0 -- -- 35
2020-09-04 16:00:00 28 15 Oeste 28 Sudoeste 0 -- -- 36
2020-09-04 15:00:00 27.9 14 Oeste 27 Oeste 0 -- -- 35
2020-09-04 14:00:00 26.8 15 Sudoeste 24 Sudoeste 0 -- -- 37
2020-09-04 13:00:00 25.5 8 Sudoeste 16 Oeste 0 -- -- 41
2020-09-04 12:00:00 22.8 6 Sudoeste 12 Sudoeste 0 -- -- 46
2020-09-04 11:00:00 20.7 2 Sudeste 5 Nordeste 0 -- -- 44
2020-09-04 10:00:00 15.9 0 Calma 0 Calma 0 -- -- 67
2020-09-04 09:00:00 7.7 0 Calma 0 Calma 0 -- -- 99
2020-09-04 08:00:00 6.7 0 Calma -- -- 0 -- -- 98
2020-09-04 07:00:00 7 0 Calma 4 Sudeste 0 -- -- 98
2020-09-04 06:00:00 7.5 0 Calma 4 Este 0 -- -- 97
2020-09-04 05:00:00 8.2 0 Calma 5 Este 0 -- -- 97
2020-09-04 04:00:00 8.8 2 Noroeste 6 Sudeste 0 -- -- 95
2020-09-04 03:00:00 9.3 0 Calma 5 Sudeste 0 -- -- 96
2020-09-04 02:00:00 9.9 0 Calma 6 Sudoeste 0 -- -- 94
2020-09-04 01:00:00 10.4 2 Nordeste 5 Sudeste 0 -- -- 92
2020-09-04 00:00:00 11.6 0 Calma 7 Sudeste 0 -- -- 89
2020-09-03 23:00:00 12.3 0 Calma 7 Este 0 -- -- 87
2020-09-03 22:00:00 14.3 0 Calma 6 Sudeste 0 -- -- 79
2020-09-03 21:00:00 16.8 4 Este 8 Norte 0 -- -- 70
2020-09-03 20:00:00 19.7 0 Calma 13 Oeste 0 -- -- 59
2020-09-03 19:00:00 25.4 10 Oeste 22 Oeste 0 -- -- 39
2020-09-03 18:00:00 26.7 14 Oeste 24 Oeste 0 -- -- 36
2020-09-03 17:00:00 27.2 15 Oeste 24 Oeste 0 -- -- 33
2020-09-03 16:00:00 27.2 15 Oeste 25 Sudoeste 0 -- -- 33
2020-09-03 15:00:00 26.5 15 Oeste 27 Sudoeste 0 -- -- 33
2020-09-03 14:00:00 25.3 14 Sudoeste 24 Oeste 0 -- -- 35
2020-09-03 13:00:00 23.1 6 Oeste 15 Sudoeste 0 -- -- 42
2020-09-03 12:00:00 20.9 5 Sudoeste 10 Sudoeste 0 -- -- 43
2020-09-03 11:00:00 19.2 3 Sudeste 6 Nordeste 0 -- -- 46
2020-09-03 10:00:00 14.1 0 Calma 5 Este 0 -- -- 70
2020-09-03 09:00:00 5.6 0 Calma 5 Sudeste 0 -- -- 98
2020-09-03 08:00:00 5.2 0 Calma 4 Este 0 -- -- 98
2020-09-03 07:00:00 5.2 0 Calma 5 Sudeste 0 -- -- 98
2020-09-03 06:00:00 5.8 0 Calma 5 Sudeste 0 -- -- 97
2020-09-03 05:00:00 6.1 0 Calma 5 Sudeste 0 -- -- 97
2020-09-03 04:00:00 6.6 0 Calma 4 Este 0 -- -- 97
2020-09-03 03:00:00 7.3 0 Calma 6 Este 0 -- -- 96
2020-09-03 02:00:00 7.9 0 Calma 3 Este 0 -- -- 96
2020-09-03 01:00:00 8.7 2 Este 5 Sudeste 0 -- -- 93
2020-09-03 00:00:00 9.2 2 Este 4 Este 0 -- -- 93
2020-09-02 23:00:00 10.2 2 Este 4 Sudeste 0 -- -- 89
2020-09-02 22:00:00 11.7 2 Este 5 Nordeste 0 -- -- 84
2020-09-02 21:00:00 13.9 2 Este 15 Norte 0 -- -- 74
2020-09-02 20:00:00 18.3 9 Nordeste 23 Norte 0 -- -- 51
2020-09-02 19:00:00 20.9 12 Oeste 25 Oeste 0 -- -- 46
2020-09-02 18:00:00 22.9 14 Oeste 24 Oeste 0 -- -- 41
2020-09-02 17:00:00 24.2 14 Oeste 24 Sudoeste 0 -- -- 39
2020-09-02 16:00:00 24.5 13 Sudoeste 26 Sudoeste 0 -- -- 36
2020-09-02 15:00:00 24.4 13 Oeste 25 Oeste 0 -- -- 37
2020-09-02 14:00:00 22.8 13 Oeste 23 Sudoeste 0 -- -- 39
2020-09-02 13:00:00 21.8 7 Oeste 15 Sudoeste 0 -- -- 39
2020-09-02 12:00:00 20.6 5 Sudoeste 12 Oeste 0 -- -- 43
2020-09-02 11:00:00 19 3 Este 7 Este 0 -- -- 47
2020-09-02 10:00:00 15.2 2 Este 6 Este 0 -- -- 64
2020-09-02 09:00:00 6.3 2 Este 7 Nordeste 0 -- -- 96
2020-09-02 08:00:00 5.4 0 Calma 5 Sudeste 0 -- -- 96
2020-09-02 07:00:00 5.7 0 Calma 5 Nordeste 0 -- -- 96
2020-09-02 06:00:00 5.9 0 Calma 5 Sudeste 0 -- -- 95
2020-09-02 05:00:00 6.5 0 Calma 5 Este 0 -- -- 93
2020-09-02 04:00:00 7.1 0 Calma 6 Este 0 -- -- 90
2020-09-02 03:00:00 8.3 0 Calma 6 Sur 0 -- -- 86
2020-09-02 02:00:00 11.5 3 Sudeste 21 Este 0 -- -- 71
2020-09-02 01:00:00 13.6 4 Sur 30 Nordeste 0 -- -- 63
2020-09-02 00:00:00 14.5 10 Norte 28 Este 0 -- -- 60
2020-09-01 23:00:00 15.9 10 Nordeste 32 Este 0 -- -- 54
2020-09-01 22:00:00 16 10 Nordeste 23 Norte 0 -- -- 56
2020-09-01 21:00:00 16 8 Nordeste 25 Norte 0 -- -- 57
2020-09-01 20:00:00 16.7 9 Norte 25 Norte 0 -- -- 56
2020-09-01 19:00:00 18.5 9 Nordeste 19 Norte 0 -- -- 50
2020-09-01 18:00:00 20.5 6 Oeste 19 Sudoeste 0 -- -- 38
2020-09-01 17:00:00 21.3 8 Sur 28 Sudoeste 0 -- -- 35
2020-09-01 16:00:00 23.2 13 Sudoeste 21 Oeste 0 -- -- 31
2020-09-01 15:00:00 22.6 14 Sudoeste 25 Sudoeste 0 -- -- 30
2020-09-01 14:00:00 20.6 13 Sudoeste 23 Sudoeste 0 -- -- 34
2020-09-01 13:00:00 20.3 6 Sudoeste 15 Sudoeste 0 -- -- 37
2020-09-01 12:00:00 17.6 0 Calma 0 Calma 0 -- -- 46
2020-09-01 11:00:00 15.5 0 Calma 0 Calma 0 -- -- 54
2020-09-01 10:00:00 13 0 Calma 0 Calma 0 -- -- 70
2020-09-01 09:00:00 8.3 0 Calma 2 Este 0 -- -- 89
2020-09-01 08:00:00 6.2 0 Calma 0 Calma 0 -- -- 94
2020-09-01 07:00:00 6.2 0 Calma 0 Calma 0 -- -- 94
2020-09-01 06:00:00 6.3 0 Calma 0 Calma 0 -- -- 94
2020-09-01 05:00:00 6.3 0 Calma 0 Calma 0 -- -- 95
2020-09-01 04:00:00 6.3 0 Calma 0 Calma 0 -- -- 94
2020-09-01 03:00:00 7.1 0 Calma 0 Calma 0 -- -- 92
2020-09-01 02:00:00 8.7 0 Calma 0 Calma 0 -- -- 88
2020-09-01 01:00:00 8.6 0 Calma 0 Calma 0 -- -- 88
2020-09-01 00:00:00 8.8 0 Calma 2 Este 0 -- -- 86
2020-08-31 23:00:00 9.1 0 Calma 4 Este 0 -- -- 84
2020-08-31 22:00:00 10.1 2 Este 6 Sudeste 0 -- -- 79
2020-08-31 21:00:00 12 2 Este 5 Nordeste 0 -- -- 71
2020-08-31 20:00:00 16.3 3 Sur 20 Sudoeste 0 -- -- 53
2020-08-31 19:00:00 19.9 11 Oeste 21 Sudoeste 0 -- -- 42
2020-08-31 18:00:00 22.2 11 Sudoeste 24 Oeste 0 -- -- 39
2020-08-31 17:00:00 22.5 9 Sudoeste 26 Sudoeste 0 -- -- 37
2020-08-31 16:00:00 22.4 12 Sudoeste 28 Oeste 0 -- -- 36
2020-08-31 15:00:00 21.7 14 Oeste 26 Sudoeste 0 -- -- 35
2020-08-31 14:00:00 20.7 13 Sudoeste 27 Sudoeste 0 -- -- 35
2020-08-31 13:00:00 18.7 15 Sudoeste 23 Sudoeste 0 -- -- 39
2020-08-31 12:00:00 18.3 4 Sudeste 13 Sudoeste 0 -- -- 42
2020-08-31 11:00:00 15.6 4 Este 7 Nordeste 0 -- -- 51
2020-08-31 10:00:00 11.1 4 Nordeste 9 Nordeste 0 -- -- 67
2020-08-31 09:00:00 2.9 0 Calma 6 Oeste 0 -- -- 97
2020-08-31 08:00:00 2.4 0 Calma 5 Nordeste 0 -- -- 96
2020-08-31 07:00:00 2.3 0 Calma 4 Nordeste 0 -- -- 96
2020-08-31 06:00:00 2.9 0 Calma 4 Este 0 -- -- 95
2020-08-31 05:00:00 3.5 2 Este 5 Sudeste 0 -- -- 93
2020-08-31 04:00:00 4.2 0 Calma 5 Sudeste 0 -- -- 91
2020-08-31 03:00:00 5.3 0 Calma 9 Oeste 0 -- -- 86
2020-08-31 02:00:00 7.3 3 Sudoeste 21 Norte 0 -- -- 78
2020-08-31 01:00:00 11.1 7 Norte 32 Nordeste 0 -- -- 58
2020-08-31 00:00:00 11.5 14 Nordeste 37 Nordeste 0 -- -- 57
2020-08-30 23:00:00 11.9 19 Nordeste 36 Nordeste 0 -- -- 55
2020-08-30 22:00:00 12.1 12 Nordeste 37 Este 0 -- -- 55
2020-08-30 21:00:00 12.3 15 Nordeste 36 Este 0 -- -- 56
2020-08-30 20:00:00 13.5 14 Nordeste 41 Este 0 -- -- 51
2020-08-30 19:00:00 14 19 Nordeste 43 Este 0 -- -- 51
2020-08-30 18:00:00 14.5 21 Nordeste 46 Este 0 -- -- 49
2020-08-30 17:00:00 15.4 15 Nordeste 41 Este 0 -- -- 46
2020-08-30 16:00:00 16 10 Este 37 Nordeste 0 -- -- 46
2020-08-30 15:00:00 16.2 17 Nordeste 35 Nordeste 0 -- -- 45
2020-08-30 14:00:00 17 13 Nordeste 28 Este 0 -- -- 43
2020-08-30 13:00:00 16.8 6 Norte 20 Sudoeste 0 -- -- 41
2020-08-30 12:00:00 17.3 4 Sur 10 Sudoeste 0 -- -- 38
2020-08-30 11:00:00 16.2 3 Sudeste 15 Sudoeste 0 -- -- 42
2020-08-30 10:00:00 12.7 4 Sudeste 7 Nordeste 0 -- -- 60
2020-08-30 09:00:00 5 2 Este 6 Este 0 -- -- 89
2020-08-30 08:00:00 5.3 2 Sudoeste 9 Sudoeste 0 -- -- 85
2020-08-30 07:00:00 7.6 4 Sudoeste 22 Este 0 -- -- 71
2020-08-30 06:00:00 10.6 9 Nordeste 37 Este 0 -- -- 56
2020-08-30 05:00:00 11.1 13 Nordeste 28 Noroeste 0 -- -- 56
2020-08-30 04:00:00 11.6 14 Nordeste 32 Nordeste 0 -- -- 55
2020-08-30 03:00:00 11.8 11 Nordeste 35 Nordeste 0 -- -- 53
2020-08-30 02:00:00 12.2 13 Nordeste 33 Nordeste 0 -- -- 53
2020-08-30 01:00:00 12.8 11 Nordeste 35 Este 0 -- -- 50
2020-08-30 00:00:00 13 17 Nordeste 39 Nordeste 0 -- -- 50
2020-08-29 23:00:00 12.3 12 Nordeste 40 Este 0 -- -- 55
2020-08-29 22:00:00 12.5 14 Nordeste 31 Este 0 -- -- 55
2020-08-29 21:00:00 12.6 14 Nordeste 42 Nordeste 0.2 -- -- 56
2020-08-29 20:00:00 12.3 19 Nordeste 40 Este 0 -- -- 64
2020-08-29 19:00:00 14.2 13 Este 30 Este 0 -- -- 57
2020-08-29 18:00:00 14.1 7 Este 33 Nordeste 0.4 -- -- 70
2020-08-29 17:00:00 13.4 11 Nordeste 35 Nordeste 0.2 -- -- 60
2020-08-29 16:00:00 15.5 19 Nordeste 44 Nordeste 0 -- -- 50
2020-08-29 15:00:00 20.4 15 Oeste 23 Sudoeste 0 -- -- 44
2020-08-29 14:00:00 20.2 6 Norte 19 Nordeste 0 -- -- 40
2020-08-29 13:00:00 16.3 9 Nordeste 22 Nordeste 0 -- -- 49
2020-08-29 12:00:00 15.7 9 Nordeste 23 Este 0 -- -- 50
2020-08-29 11:00:00 15.1 9 Nordeste 24 Nordeste 0 -- -- 55
2020-08-29 10:00:00 14.2 3 Este 10 Norte 0 -- -- 63
2020-08-29 09:00:00 12.7 0 Calma 6 Sudeste 0 -- -- 76
2020-08-29 08:00:00 12.2 0 Calma 0 Calma 0 -- -- 85
2020-08-29 07:00:00 12.1 0 Calma 19 Este 0 -- -- 80
2020-08-29 06:00:00 12.9 5 Este 21 Nordeste 0 -- -- 76
2020-08-29 05:00:00 12.8 3 Este 12 Norte 0 -- -- 68
2020-08-29 04:00:00 13.6 5 Nordeste 21 Norte 0 -- -- 73
2020-08-29 03:00:00 14.6 10 Nordeste 26 Norte 0 -- -- 58
2020-08-29 02:00:00 15.2 11 Nordeste 32 Norte 0 -- -- 59
2020-08-29 01:00:00 15.5 11 Nordeste 26 Norte 0 -- -- 62
2020-08-29 00:00:00 16.1 6 Nordeste 18 Norte 0 -- -- 67
2020-08-28 23:00:00 16.1 6 Nordeste 13 Norte 0 -- -- 72
2020-08-28 22:00:00 15.3 0 Calma 6 Este 0 -- -- 95
2020-08-28 21:00:00 15.2 3 Oeste 8 Sudoeste 0 -- -- 93
2020-08-28 20:00:00 17.4 3 Este 12 Noroeste 0 -- -- 83
2020-08-28 19:00:00 17.7 6 Sur 31 Sudoeste 0 -- -- 81
2020-08-28 18:00:00 20.6 3 Nordeste 21 Oeste 0.4 -- -- 84
2020-08-28 17:00:00 20.7 14 Oeste 28 Oeste 0 -- -- 74
2020-08-28 16:00:00 21.8 13 Sudoeste 32 Sur 0 -- -- 71
2020-08-28 15:00:00 21 12 Oeste 21 Oeste 0 -- -- 78
2020-08-28 14:00:00 18.5 11 Sudoeste 26 Sudoeste 2 -- -- 92
2020-08-28 13:00:00 21.8 12 Sudoeste 33 Sudoeste 0 -- -- 70
2020-08-28 12:00:00 22.1 18 Oeste 35 Sudoeste 0 -- -- 69
2020-08-28 11:00:00 22.1 17 Sudoeste 34 Sudoeste 0 -- -- 70
2020-08-28 10:00:00 23.5 5 Oeste 18 Oeste 0 -- -- 66
2020-08-28 09:00:00 17.2 3 Sudoeste 8 Sudoeste 0 -- -- 86
2020-08-28 08:00:00 16 0 Calma 4 Sur 0 -- -- 92
2020-08-28 07:00:00 16.1 0 Calma 5 Oeste 0 -- -- 90
2020-08-28 06:00:00 16.1 0 Calma 4 Este 0 -- -- 90
2020-08-28 05:00:00 15.8 3 Noroeste 5 Sudoeste 0 -- -- 90
2020-08-28 04:00:00 16.1 0 Calma 8 Oeste 0 -- -- 87
2020-08-28 03:00:00 14.9 2 Sudeste 4 Sudeste 0 -- -- 92
2020-08-28 02:00:00 14.6 0 Calma 7 Oeste 0 -- -- 90
2020-08-28 01:00:00 15.1 3 Este 8 Sudeste 0 -- -- 85
2020-08-28 00:00:00 15.4 3 Sudeste 5 Sudeste 0 -- -- 86
2020-08-27 23:00:00 17.1 2 Sudeste 5 Sudoeste 0 -- -- 80
2020-08-27 22:00:00 18.8 3 Sudeste 9 Nordeste 0 -- -- 76
2020-08-27 21:00:00 21.8 4 Este 14 Norte 0 -- -- 66
2020-08-27 20:00:00 25.4 9 Sudoeste 23 Sudoeste 0 -- -- 58
2020-08-27 19:00:00 27.4 7 Sudoeste 26 Sudoeste 0 -- -- 49
2020-08-27 18:00:00 30.2 13 Sudoeste 29 Sudoeste 0 -- -- 39
2020-08-27 17:00:00 30.8 15 Sudoeste 28 Sudoeste 0 -- -- 36
2020-08-27 16:00:00 32 8 Sur 28 Sudoeste 0 -- -- 30
2020-08-27 15:00:00 31.6 12 Sudoeste 28 Sudoeste 0 -- -- 28
2020-08-27 14:00:00 30.6 10 Sur 29 Sur 0 -- -- 32
2020-08-27 13:00:00 30.4 10 Sur 24 Sudeste 0 -- -- 31
2020-08-27 12:00:00 25.6 5 Sudoeste 15 Oeste 0 -- -- 51
2020-08-27 11:00:00 24.6 3 Este 8 Nordeste 0 -- -- 49
2020-08-27 10:00:00 20.2 0 Calma 5 Este 0 -- -- 68
2020-08-27 09:00:00 12.6 0 Calma 6 Sudeste 0 -- -- 96
2020-08-27 08:00:00 11.7 0 Calma 6 Sudeste 0 -- -- 97
2020-08-27 07:00:00 11.7 0 Calma 6 Oeste 0 -- -- 97
2020-08-27 06:00:00 12.1 3 Nordeste 9 Sudoeste 0 -- -- 97
2020-08-27 05:00:00 12.6 2 Este 5 Este 0 -- -- 96
2020-08-27 04:00:00 12.8 0 Calma 4 Sudeste 0 -- -- 95
2020-08-27 03:00:00 13.3 0 Calma 3 Este 0 -- -- 94
2020-08-27 02:00:00 13.7 0 Calma 4 Nordeste 0 -- -- 91
2020-08-27 01:00:00 14.5 0 Calma 4 Este 0 -- -- 88
2020-08-27 00:00:00 15.4 3 Este 6 Sudeste 0 -- -- 87
2020-08-26 23:00:00 16.6 2 Este 6 Este 0 -- -- 83
2020-08-26 22:00:00 18.3 3 Este 9 Norte 0 -- -- 77
2020-08-26 21:00:00 20.3 3 Este 6 Este 0 -- -- 71
2020-08-26 20:00:00 25.4 3 Nordeste 16 Sur 0 -- -- 52
2020-08-26 19:00:00 29.1 9 Sudoeste 24 Sudoeste 0 -- -- 41
2020-08-26 18:00:00 30.9 13 Sudoeste 27 Oeste 0 -- -- 37
2020-08-26 17:00:00 31.4 13 Sudoeste 24 Sudoeste 0 -- -- 33
2020-08-26 16:00:00 31.6 15 Sudoeste 24 Sudoeste 0 -- -- 35
2020-08-26 15:00:00 31.1 14 Sudoeste 29 Sudoeste 0 -- -- 35
2020-08-26 14:00:00 30.3 15 Sudoeste 27 Sudoeste 0 -- -- 37
2020-08-26 13:00:00 29.1 14 Sudoeste 26 Sudoeste 0 -- -- 40
2020-08-26 12:00:00 27 4 Oeste 10 Sudoeste 0 -- -- 47
2020-08-26 11:00:00 25 3 Este 5 Este 0 -- -- 53
2020-08-26 10:00:00 20.8 0 Calma 4 Nordeste 0 -- -- 65
2020-08-26 09:00:00 12.4 3 Este 4 Nordeste 0 -- -- 96
2020-08-26 08:00:00 11.1 0 Calma 6 Sudeste 0 -- -- 97
2020-08-26 07:00:00 10.9 0 Calma 5 Sudeste 0 -- -- 94
2020-08-26 06:00:00 10.8 0 Calma 4 Sudeste 0 -- -- 95
2020-08-26 05:00:00 10.9 0 Calma 5 Sudeste 0 -- -- 94
2020-08-26 04:00:00 11.3 0 Calma 3 Este 0 -- -- 91
2020-08-26 03:00:00 11.6 0 Calma 5 Este 0 -- -- 89
2020-08-26 02:00:00 12 2 Sur 6 Sudeste 0 -- -- 86
2020-08-26 01:00:00 13 3 Nordeste 5 Sudeste 0 -- -- 83
2020-08-26 00:00:00 13.8 2 Sur 5 Este 0 -- -- 83